sensor_id;sensor_type;location;lat;lon;timestamp;P1;durP1;ratioP1;P2;durP2;ratioP2
80213;SDS011;69531;37.974;23.708;2023-04-28T00:01:20;4.00;;;1.90;;
80213;SDS011;69531;37.974;23.708;2023-04-28T00:03:45;5.55;;;2.10;;
80213;SDS011;69531;37.974;23.708;2023-04-28T00:06:12;4.40;;;1.77;;
80213;SDS011;69531;37.974;23.708;2023-04-28T00:08:39;6.53;;;2.25;;
80213;SDS011;69531;37.974;23.708;2023-04-28T00:11:08;10.25;;;2.10;;
80213;SDS011;69531;37.974;23.708;2023-04-28T00:13:35;6.40;;;1.98;;
80213;SDS011;69531;37.974;23.708;2023-04-28T00:16:01;6.72;;;1.90;;
80213;SDS011;69531;37.974;23.708;2023-04-28T00:18:27;4.18;;;1.95;;
80213;SDS011;69531;37.974;23.708;2023-04-28T00:20:53;8.23;;;2.70;;
80213;SDS011;69531;37.974;23.708;2023-04-28T00:23:19;5.05;;;2.10;;
80213;SDS011;69531;37.974;23.708;2023-04-28T00:25:49;6.60;;;1.95;;
80213;SDS011;69531;37.974;23.708;2023-04-28T00:28:19;4.97;;;1.77;;
80213;SDS011;69531;37.974;23.708;2023-04-28T00:30:45;4.03;;;1.90;;
80213;SDS011;69531;37.974;23.708;2023-04-28T00:33:11;5.35;;;1.95;;
80213;SDS011;69531;37.974;23.708;2023-04-28T00:35:38;6.47;;;1.90;;
80213;SDS011;69531;37.974;23.708;2023-04-28T00:38:04;6.30;;;1.98;;
80213;SDS011;69531;37.974;23.708;2023-04-28T00:40:33;4.32;;;1.90;;
80213;SDS011;69531;37.974;23.708;2023-04-28T00:43:03;6.95;;;1.90;;
80213;SDS011;69531;37.974;23.708;2023-04-28T00:45:30;6.68;;;1.90;;
80213;SDS011;69531;37.974;23.708;2023-04-28T00:47:56;5.38;;;1.70;;
80213;SDS011;69531;37.974;23.708;2023-04-28T00:50:23;7.32;;;2.30;;
80213;SDS011;69531;37.974;23.708;2023-04-28T00:52:50;3.20;;;1.77;;
80213;SDS011;69531;37.974;23.708;2023-04-28T00:55:16;7.72;;;1.73;;
80213;SDS011;69531;37.974;23.708;2023-04-28T00:57:42;5.38;;;1.92;;
80213;SDS011;69531;37.974;23.708;2023-04-28T01:00:08;6.72;;;2.47;;
80213;SDS011;69531;37.974;23.708;2023-04-28T01:02:34;4.85;;;2.30;;
80213;SDS011;69531;37.974;23.708;2023-04-28T01:05:01;5.90;;;1.90;;
80213;SDS011;69531;37.974;23.708;2023-04-28T01:07:27;4.70;;;1.95;;
80213;SDS011;69531;37.974;23.708;2023-04-28T01:09:53;4.20;;;2.00;;
80213;SDS011;69531;37.974;23.708;2023-04-28T01:12:20;7.03;;;1.92;;
80213;SDS011;69531;37.974;23.708;2023-04-28T01:14:46;6.80;;;2.05;;
80213;SDS011;69531;37.974;23.708;2023-04-28T01:17:13;5.50;;;2.33;;
80213;SDS011;69531;37.974;23.708;2023-04-28T01:19:39;7.97;;;1.92;;
80213;SDS011;69531;37.974;23.708;2023-04-28T01:22:05;5.88;;;2.00;;
80213;SDS011;69531;37.974;23.708;2023-04-28T01:24:30;6.18;;;2.22;;
80213;SDS011;69531;37.974;23.708;2023-04-28T01:26:56;3.95;;;1.77;;
80213;SDS011;69531;37.974;23.708;2023-04-28T01:29:22;5.53;;;2.03;;
80213;SDS011;69531;37.974;23.708;2023-04-28T01:31:48;6.22;;;2.10;;
80213;SDS011;69531;37.974;23.708;2023-04-28T01:34:13;8.00;;;2.33;;
80213;SDS011;69531;37.974;23.708;2023-04-28T01:36:39;4.35;;;2.15;;
80213;SDS011;69531;37.974;23.708;2023-04-28T01:39:05;5.32;;;2.17;;
80213;SDS011;69531;37.974;23.708;2023-04-28T01:41:31;11.00;;;2.20;;
80213;SDS011;69531;37.974;23.708;2023-04-28T01:43:58;6.38;;;2.30;;
80213;SDS011;69531;37.974;23.708;2023-04-28T01:46:24;4.88;;;2.22;;
80213;SDS011;69531;37.974;23.708;2023-04-28T01:48:50;5.28;;;2.25;;
80213;SDS011;69531;37.974;23.708;2023-04-28T01:51:16;5.80;;;2.35;;
80213;SDS011;69531;37.974;23.708;2023-04-28T01:53:42;5.25;;;1.73;;
80213;SDS011;69531;37.974;23.708;2023-04-28T01:56:07;5.75;;;2.05;;
80213;SDS011;69531;37.974;23.708;2023-04-28T01:58:33;6.78;;;2.10;;
80213;SDS011;69531;37.974;23.708;2023-04-28T02:00:59;6.18;;;2.30;;
80213;SDS011;69531;37.974;23.708;2023-04-28T02:03:25;7.03;;;2.45;;
80213;SDS011;69531;37.974;23.708;2023-04-28T02:05:52;5.57;;;1.92;;
80213;SDS011;69531;37.974;23.708;2023-04-28T02:08:17;5.82;;;2.72;;
80213;SDS011;69531;37.974;23.708;2023-04-28T02:10:43;5.97;;;2.13;;
80213;SDS011;69531;37.974;23.708;2023-04-28T02:13:09;6.97;;;2.28;;
80213;SDS011;69531;37.974;23.708;2023-04-28T02:15:44;4.25;;;2.10;;
80213;SDS011;69531;37.974;23.708;2023-04-28T02:18:10;4.60;;;1.92;;
80213;SDS011;69531;37.974;23.708;2023-04-28T02:20:36;7.72;;;2.20;;
80213;SDS011;69531;37.974;23.708;2023-04-28T02:23:01;5.85;;;2.35;;
80213;SDS011;69531;37.974;23.708;2023-04-28T02:25:27;7.03;;;2.20;;
80213;SDS011;69531;37.974;23.708;2023-04-28T02:27:53;4.63;;;2.20;;
80213;SDS011;69531;37.974;23.708;2023-04-28T02:30:18;5.90;;;2.00;;
80213;SDS011;69531;37.974;23.708;2023-04-28T02:32:44;6.85;;;2.25;;
80213;SDS011;69531;37.974;23.708;2023-04-28T02:35:10;4.20;;;1.85;;
80213;SDS011;69531;37.974;23.708;2023-04-28T02:37:36;5.15;;;2.05;;
80213;SDS011;69531;37.974;23.708;2023-04-28T02:40:01;5.78;;;2.30;;
80213;SDS011;69531;37.974;23.708;2023-04-28T02:42:27;5.43;;;2.40;;
80213;SDS011;69531;37.974;23.708;2023-04-28T02:44:53;2.85;;;1.73;;
80213;SDS011;69531;37.974;23.708;2023-04-28T02:47:18;7.90;;;2.60;;
80213;SDS011;69531;37.974;23.708;2023-04-28T02:49:45;5.00;;;2.25;;
80213;SDS011;69531;37.974;23.708;2023-04-28T02:52:10;6.28;;;2.40;;
80213;SDS011;69531;37.974;23.708;2023-04-28T02:54:36;5.70;;;2.30;;
80213;SDS011;69531;37.974;23.708;2023-04-28T02:57:02;6.15;;;2.22;;
80213;SDS011;69531;37.974;23.708;2023-04-28T02:59:31;5.53;;;2.20;;
80213;SDS011;69531;37.974;23.708;2023-04-28T03:01:56;4.85;;;2.05;;
80213;SDS011;69531;37.974;23.708;2023-04-28T03:04:22;4.57;;;1.60;;
80213;SDS011;69531;37.974;23.708;2023-04-28T03:06:48;4.93;;;2.13;;
80213;SDS011;69531;37.974;23.708;2023-04-28T03:09:14;6.25;;;2.42;;
80213;SDS011;69531;37.974;23.708;2023-04-28T03:11:40;6.20;;;2.10;;
80213;SDS011;69531;37.974;23.708;2023-04-28T03:14:06;3.58;;;1.92;;
80213;SDS011;69531;37.974;23.708;2023-04-28T03:16:32;3.20;;;1.80;;
80213;SDS011;69531;37.974;23.708;2023-04-28T03:18:58;7.22;;;2.17;;
80213;SDS011;69531;37.974;23.708;2023-04-28T03:21:23;4.63;;;1.98;;
80213;SDS011;69531;37.974;23.708;2023-04-28T03:23:52;5.97;;;2.28;;
80213;SDS011;69531;37.974;23.708;2023-04-28T03:26:17;6.80;;;2.30;;
80213;SDS011;69531;37.974;23.708;2023-04-28T03:28:43;5.63;;;2.00;;
80213;SDS011;69531;37.974;23.708;2023-04-28T03:31:09;7.15;;;2.17;;
80213;SDS011;69531;37.974;23.708;2023-04-28T03:33:35;4.95;;;2.20;;
80213;SDS011;69531;37.974;23.708;2023-04-28T03:36:00;6.85;;;1.90;;
80213;SDS011;69531;37.974;23.708;2023-04-28T03:38:26;4.90;;;2.28;;
80213;SDS011;69531;37.974;23.708;2023-04-28T03:40:52;4.35;;;2.05;;
80213;SDS011;69531;37.974;23.708;2023-04-28T03:43:18;4.00;;;1.92;;
80213;SDS011;69531;37.974;23.708;2023-04-28T03:45:43;8.02;;;2.10;;
80213;SDS011;69531;37.974;23.708;2023-04-28T03:48:09;6.50;;;2.05;;
80213;SDS011;69531;37.974;23.708;2023-04-28T03:50:35;7.15;;;1.98;;
80213;SDS011;69531;37.974;23.708;2023-04-28T03:53:01;6.50;;;2.15;;
80213;SDS011;69531;37.974;23.708;2023-04-28T03:55:26;5.47;;;2.00;;
80213;SDS011;69531;37.974;23.708;2023-04-28T03:57:52;5.68;;;2.00;;
80213;SDS011;69531;37.974;23.708;2023-04-28T04:00:18;13.20;;;3.45;;
80213;SDS011;69531;37.974;23.708;2023-04-28T04:02:44;10.50;;;2.45;;
80213;SDS011;69531;37.974;23.708;2023-04-28T04:05:10;12.13;;;3.08;;
80213;SDS011;69531;37.974;23.708;2023-04-28T04:07:36;12.55;;;2.70;;
80213;SDS011;69531;37.974;23.708;2023-04-28T04:10:02;9.38;;;2.92;;
80213;SDS011;69531;37.974;23.708;2023-04-28T04:12:27;7.65;;;2.50;;
80213;SDS011;69531;37.974;23.708;2023-04-28T04:14:53;12.10;;;3.15;;
80213;SDS011;69531;37.974;23.708;2023-04-28T04:17:19;17.13;;;2.90;;
80213;SDS011;69531;37.974;23.708;2023-04-28T04:19:45;13.80;;;3.00;;
80213;SDS011;69531;37.974;23.708;2023-04-28T04:22:10;14.60;;;2.83;;
80213;SDS011;69531;37.974;23.708;2023-04-28T04:24:36;12.88;;;2.75;;
80213;SDS011;69531;37.974;23.708;2023-04-28T04:27:02;15.35;;;2.90;;
80213;SDS011;69531;37.974;23.708;2023-04-28T04:29:27;12.82;;;2.60;;
80213;SDS011;69531;37.974;23.708;2023-04-28T04:31:53;10.45;;;2.65;;
80213;SDS011;69531;37.974;23.708;2023-04-28T04:34:19;97.80;;;10.07;;
80213;SDS011;69531;37.974;23.708;2023-04-28T04:36:44;48.90;;;5.57;;
80213;SDS011;69531;37.974;23.708;2023-04-28T04:39:10;58.30;;;5.97;;
80213;SDS011;69531;37.974;23.708;2023-04-28T04:41:36;39.35;;;5.20;;
80213;SDS011;69531;37.974;23.708;2023-04-28T04:44:02;53.30;;;5.40;;
80213;SDS011;69531;37.974;23.708;2023-04-28T04:46:28;35.33;;;4.93;;
80213;SDS011;69531;37.974;23.708;2023-04-28T04:48:54;48.40;;;5.53;;
80213;SDS011;69531;37.974;23.708;2023-04-28T04:51:20;34.40;;;4.38;;
80213;SDS011;69531;37.974;23.708;2023-04-28T04:53:45;32.70;;;4.30;;
80213;SDS011;69531;37.974;23.708;2023-04-28T04:56:11;32.47;;;4.45;;
80213;SDS011;69531;37.974;23.708;2023-04-28T04:58:37;31.92;;;4.43;;
80213;SDS011;69531;37.974;23.708;2023-04-28T05:01:03;31.33;;;4.30;;
80213;SDS011;69531;37.974;23.708;2023-04-28T05:03:29;20.35;;;4.15;;
80213;SDS011;69531;37.974;23.708;2023-04-28T05:05:55;20.50;;;3.40;;
80213;SDS011;69531;37.974;23.708;2023-04-28T05:08:21;23.75;;;3.83;;
80213;SDS011;69531;37.974;23.708;2023-04-28T05:10:46;25.90;;;3.78;;
80213;SDS011;69531;37.974;23.708;2023-04-28T05:13:12;18.70;;;3.78;;
80213;SDS011;69531;37.974;23.708;2023-04-28T05:15:38;17.92;;;3.80;;
80213;SDS011;69531;37.974;23.708;2023-04-28T05:18:03;16.60;;;4.28;;
80213;SDS011;69531;37.974;23.708;2023-04-28T05:20:34;14.52;;;4.50;;
80213;SDS011;69531;37.974;23.708;2023-04-28T05:23:00;17.80;;;4.40;;
80213;SDS011;69531;37.974;23.708;2023-04-28T05:25:26;18.15;;;4.50;;
80213;SDS011;69531;37.974;23.708;2023-04-28T05:27:52;16.65;;;3.80;;
80213;SDS011;69531;37.974;23.708;2023-04-28T05:30:20;17.45;;;5.00;;
80213;SDS011;69531;37.974;23.708;2023-04-28T05:32:46;15.07;;;3.83;;
80213;SDS011;69531;37.974;23.708;2023-04-28T05:35:12;14.43;;;3.60;;
80213;SDS011;69531;37.974;23.708;2023-04-28T05:37:37;18.23;;;3.92;;
80213;SDS011;69531;37.974;23.708;2023-04-28T05:40:04;9.80;;;3.20;;
80213;SDS011;69531;37.974;23.708;2023-04-28T05:42:31;10.05;;;3.17;;
80213;SDS011;69531;37.974;23.708;2023-04-28T05:44:56;8.82;;;3.08;;
80213;SDS011;69531;37.974;23.708;2023-04-28T05:47:22;9.57;;;2.58;;
80213;SDS011;69531;37.974;23.708;2023-04-28T05:49:48;9.18;;;3.40;;
80213;SDS011;69531;37.974;23.708;2023-04-28T05:52:13;9.80;;;2.70;;
80213;SDS011;69531;37.974;23.708;2023-04-28T05:54:39;8.18;;;2.60;;
80213;SDS011;69531;37.974;23.708;2023-04-28T05:57:05;8.57;;;3.10;;
80213;SDS011;69531;37.974;23.708;2023-04-28T05:59:32;5.50;;;2.30;;
80213;SDS011;69531;37.974;23.708;2023-04-28T06:01:57;7.30;;;2.58;;
80213;SDS011;69531;37.974;23.708;2023-04-28T06:04:23;5.20;;;2.08;;
80213;SDS011;69531;37.974;23.708;2023-04-28T06:06:49;7.13;;;2.50;;
80213;SDS011;69531;37.974;23.708;2023-04-28T06:09:15;4.78;;;2.13;;
80213;SDS011;69531;37.974;23.708;2023-04-28T06:11:41;5.03;;;2.35;;
80213;SDS011;69531;37.974;23.708;2023-04-28T06:14:06;4.70;;;2.20;;
80213;SDS011;69531;37.974;23.708;2023-04-28T06:16:32;3.67;;;1.98;;
80213;SDS011;69531;37.974;23.708;2023-04-28T06:18:58;4.60;;;1.80;;
80213;SDS011;69531;37.974;23.708;2023-04-28T06:21:24;6.13;;;2.10;;
80213;SDS011;69531;37.974;23.708;2023-04-28T06:23:51;7.03;;;2.10;;
80213;SDS011;69531;37.974;23.708;2023-04-28T06:26:17;6.45;;;2.03;;
80213;SDS011;69531;37.974;23.708;2023-04-28T06:28:42;4.78;;;2.10;;
80213;SDS011;69531;37.974;23.708;2023-04-28T06:31:08;6.07;;;2.15;;
80213;SDS011;69531;37.974;23.708;2023-04-28T06:33:34;5.88;;;2.38;;
80213;SDS011;69531;37.974;23.708;2023-04-28T06:35:59;10.35;;;2.65;;
80213;SDS011;69531;37.974;23.708;2023-04-28T06:38:25;4.90;;;2.30;;
80213;SDS011;69531;37.974;23.708;2023-04-28T06:40:51;4.88;;;2.20;;
80213;SDS011;69531;37.974;23.708;2023-04-28T06:43:17;5.97;;;1.75;;
80213;SDS011;69531;37.974;23.708;2023-04-28T06:45:42;4.43;;;2.10;;
80213;SDS011;69531;37.974;23.708;2023-04-28T06:48:08;4.78;;;1.90;;
80213;SDS011;69531;37.974;23.708;2023-04-28T06:50:35;8.68;;;2.33;;
80213;SDS011;69531;37.974;23.708;2023-04-28T06:53:01;7.03;;;1.77;;
80213;SDS011;69531;37.974;23.708;2023-04-28T06:55:27;6.57;;;2.28;;
80213;SDS011;69531;37.974;23.708;2023-04-28T06:57:53;3.75;;;1.77;;
80213;SDS011;69531;37.974;23.708;2023-04-28T07:00:19;6.57;;;2.20;;
80213;SDS011;69531;37.974;23.708;2023-04-28T07:02:45;4.32;;;1.85;;
80213;SDS011;69531;37.974;23.708;2023-04-28T07:05:10;4.47;;;2.25;;
80213;SDS011;69531;37.974;23.708;2023-04-28T07:07:36;5.95;;;2.20;;
80213;SDS011;69531;37.974;23.708;2023-04-28T07:10:05;5.78;;;2.30;;
80213;SDS011;69531;37.974;23.708;2023-04-28T07:12:31;6.78;;;2.28;;
80213;SDS011;69531;37.974;23.708;2023-04-28T07:14:57;8.07;;;2.45;;
80213;SDS011;69531;37.974;23.708;2023-04-28T07:17:22;7.82;;;2.28;;
80213;SDS011;69531;37.974;23.708;2023-04-28T07:19:48;6.78;;;2.35;;
80213;SDS011;69531;37.974;23.708;2023-04-28T07:22:15;5.40;;;2.15;;
80213;SDS011;69531;37.974;23.708;2023-04-28T07:24:41;4.88;;;2.03;;
80213;SDS011;69531;37.974;23.708;2023-04-28T07:27:07;5.85;;;2.17;;
80213;SDS011;69531;37.974;23.708;2023-04-28T07:29:33;7.30;;;2.17;;
80213;SDS011;69531;37.974;23.708;2023-04-28T07:32:02;6.10;;;2.30;;
80213;SDS011;69531;37.974;23.708;2023-04-28T07:34:29;6.38;;;2.45;;
80213;SDS011;69531;37.974;23.708;2023-04-28T07:36:55;6.78;;;2.50;;
80213;SDS011;69531;37.974;23.708;2023-04-28T07:39:22;10.43;;;2.20;;
80213;SDS011;69531;37.974;23.708;2023-04-28T07:41:48;5.80;;;2.03;;
80213;SDS011;69531;37.974;23.708;2023-04-28T07:44:13;10.75;;;2.80;;
80213;SDS011;69531;37.974;23.708;2023-04-28T07:46:39;8.70;;;2.72;;
80213;SDS011;69531;37.974;23.708;2023-04-28T07:49:05;6.25;;;2.25;;
80213;SDS011;69531;37.974;23.708;2023-04-28T07:51:32;8.10;;;2.70;;
80213;SDS011;69531;37.974;23.708;2023-04-28T07:53:58;13.60;;;2.97;;
80213;SDS011;69531;37.974;23.708;2023-04-28T07:56:24;6.60;;;2.58;;
80213;SDS011;69531;37.974;23.708;2023-04-28T07:58:50;10.32;;;3.13;;
80213;SDS011;69531;37.974;23.708;2023-04-28T08:01:17;7.55;;;2.80;;
80213;SDS011;69531;37.974;23.708;2023-04-28T08:03:43;7.05;;;2.90;;
80213;SDS011;69531;37.974;23.708;2023-04-28T08:06:08;7.35;;;2.67;;
80213;SDS011;69531;37.974;23.708;2023-04-28T08:08:34;7.78;;;2.22;;
80213;SDS011;69531;37.974;23.708;2023-04-28T08:11:00;7.97;;;2.60;;
80213;SDS011;69531;37.974;23.708;2023-04-28T08:13:26;4.15;;;2.60;;
80213;SDS011;69531;37.974;23.708;2023-04-28T08:15:53;4.97;;;2.50;;
80213;SDS011;69531;37.974;23.708;2023-04-28T08:18:20;5.43;;;2.35;;
80213;SDS011;69531;37.974;23.708;2023-04-28T08:20:46;10.45;;;2.45;;
80213;SDS011;69531;37.974;23.708;2023-04-28T08:23:12;7.00;;;2.70;;
80213;SDS011;69531;37.974;23.708;2023-04-28T08:25:38;6.95;;;2.20;;
80213;SDS011;69531;37.974;23.708;2023-04-28T08:28:04;5.30;;;1.95;;
80213;SDS011;69531;37.974;23.708;2023-04-28T08:30:30;3.72;;;2.20;;
80213;SDS011;69531;37.974;23.708;2023-04-28T08:32:56;5.28;;;2.22;;
80213;SDS011;69531;37.974;23.708;2023-04-28T08:35:22;9.18;;;3.08;;
80213;SDS011;69531;37.974;23.708;2023-04-28T08:37:47;5.05;;;2.05;;
80213;SDS011;69531;37.974;23.708;2023-04-28T08:40:13;5.40;;;2.30;;
80213;SDS011;69531;37.974;23.708;2023-04-28T08:42:40;8.85;;;2.40;;
80213;SDS011;69531;37.974;23.708;2023-04-28T08:45:06;6.32;;;2.60;;
80213;SDS011;69531;37.974;23.708;2023-04-28T08:50:09;5.63;;;2.92;;
80213;SDS011;69531;37.974;23.708;2023-04-28T08:52:40;5.93;;;2.50;;
80213;SDS011;69531;37.974;23.708;2023-04-28T08:55:07;9.23;;;2.40;;
80213;SDS011;69531;37.974;23.708;2023-04-28T08:57:53;4.57;;;2.20;;
80213;SDS011;69531;37.974;23.708;2023-04-28T09:00:20;7.85;;;2.30;;
80213;SDS011;69531;37.974;23.708;2023-04-28T09:02:45;5.28;;;2.05;;
80213;SDS011;69531;37.974;23.708;2023-04-28T09:05:12;4.75;;;2.10;;
80213;SDS011;69531;37.974;23.708;2023-04-28T09:07:38;3.95;;;1.80;;
80213;SDS011;69531;37.974;23.708;2023-04-28T09:12:47;6.82;;;2.33;;
80213;SDS011;69531;37.974;23.708;2023-04-28T09:17:58;5.18;;;1.90;;
80213;SDS011;69531;37.974;23.708;2023-04-28T09:20:27;10.00;;;2.03;;
80213;SDS011;69531;37.974;23.708;2023-04-28T09:22:55;5.68;;;1.75;;
80213;SDS011;69531;37.974;23.708;2023-04-28T09:25:36;5.15;;;2.10;;
80213;SDS011;69531;37.974;23.708;2023-04-28T09:28:18;6.90;;;2.05;;
80213;SDS011;69531;37.974;23.708;2023-04-28T09:30:46;3.75;;;2.03;;
80213;SDS011;69531;37.974;23.708;2023-04-28T09:33:12;4.53;;;1.95;;
80213;SDS011;69531;37.974;23.708;2023-04-28T09:35:38;6.90;;;1.95;;
80213;SDS011;69531;37.974;23.708;2023-04-28T09:38:05;7.07;;;1.80;;
80213;SDS011;69531;37.974;23.708;2023-04-28T09:40:30;5.10;;;2.25;;
80213;SDS011;69531;37.974;23.708;2023-04-28T09:42:56;6.05;;;1.98;;
80213;SDS011;69531;37.974;23.708;2023-04-28T09:45:22;5.40;;;2.25;;
80213;SDS011;69531;37.974;23.708;2023-04-28T09:47:48;4.20;;;1.80;;
80213;SDS011;69531;37.974;23.708;2023-04-28T09:53:06;4.85;;;1.80;;
80213;SDS011;69531;37.974;23.708;2023-04-28T09:55:38;4.50;;;1.95;;
80213;SDS011;69531;37.974;23.708;2023-04-28T09:58:08;4.35;;;1.85;;
80213;SDS011;69531;37.974;23.708;2023-04-28T10:00:35;4.38;;;1.88;;
80213;SDS011;69531;37.974;23.708;2023-04-28T10:03:04;4.68;;;1.90;;
80213;SDS011;69531;37.974;23.708;2023-04-28T10:05:33;7.30;;;2.05;;
80213;SDS011;69531;37.974;23.708;2023-04-28T10:08:00;6.53;;;2.15;;
80213;SDS011;69531;37.974;23.708;2023-04-28T10:10:27;5.78;;;1.90;;
80213;SDS011;69531;37.974;23.708;2023-04-28T10:12:53;6.30;;;1.85;;
80213;SDS011;69531;37.974;23.708;2023-04-28T10:15:21;4.28;;;1.90;;
80213;SDS011;69531;37.974;23.708;2023-04-28T10:17:48;7.07;;;2.20;;
80213;SDS011;69531;37.974;23.708;2023-04-28T10:20:15;4.43;;;2.10;;
80213;SDS011;69531;37.974;23.708;2023-04-28T10:25:40;5.95;;;2.47;;
80213;SDS011;69531;37.974;23.708;2023-04-28T10:28:07;4.40;;;1.70;;
80213;SDS011;69531;37.974;23.708;2023-04-28T10:30:34;5.22;;;1.98;;
80213;SDS011;69531;37.974;23.708;2023-04-28T10:40:35;6.00;;;1.88;;
80213;SDS011;69531;37.974;23.708;2023-04-28T10:43:01;4.50;;;2.10;;
80213;SDS011;69531;37.974;23.708;2023-04-28T10:48:15;4.35;;;1.90;;
80213;SDS011;69531;37.974;23.708;2023-04-28T10:51:42;5.68;;;2.00;;
80213;SDS011;69531;37.974;23.708;2023-04-28T10:56:09;11.48;;;2.75;;
80213;SDS011;69531;37.974;23.708;2023-04-28T10:58:36;7.55;;;2.05;;
80213;SDS011;69531;37.974;23.708;2023-04-28T11:03:51;4.85;;;2.08;;
80213;SDS011;69531;37.974;23.708;2023-04-28T11:06:35;4.90;;;2.10;;
80213;SDS011;69531;37.974;23.708;2023-04-28T11:11:36;5.05;;;1.73;;
80213;SDS011;69531;37.974;23.708;2023-04-28T11:19:31;3.63;;;1.73;;
80213;SDS011;69531;37.974;23.708;2023-04-28T11:22:05;3.38;;;1.75;;
80213;SDS011;69531;37.974;23.708;2023-04-28T11:24:54;6.25;;;2.28;;
80213;SDS011;69531;37.974;23.708;2023-04-28T11:27:25;4.32;;;1.80;;
80213;SDS011;69531;37.974;23.708;2023-04-28T11:29:52;5.30;;;1.98;;
80213;SDS011;69531;37.974;23.708;2023-04-28T11:32:25;5.93;;;2.20;;
80213;SDS011;69531;37.974;23.708;2023-04-28T11:34:51;4.75;;;2.10;;
80213;SDS011;69531;37.974;23.708;2023-04-28T11:37:17;7.05;;;2.00;;
80213;SDS011;69531;37.974;23.708;2023-04-28T11:39:45;8.40;;;2.17;;
80213;SDS011;69531;37.974;23.708;2023-04-28T11:42:11;6.72;;;2.05;;
80213;SDS011;69531;37.974;23.708;2023-04-28T11:44:36;5.60;;;2.25;;
80213;SDS011;69531;37.974;23.708;2023-04-28T11:47:03;8.85;;;2.28;;
80213;SDS011;69531;37.974;23.708;2023-04-28T11:49:43;8.32;;;2.47;;
80213;SDS011;69531;37.974;23.708;2023-04-28T11:52:10;8.77;;;2.30;;
80213;SDS011;69531;37.974;23.708;2023-04-28T11:54:36;5.80;;;2.40;;
80213;SDS011;69531;37.974;23.708;2023-04-28T11:57:03;7.63;;;2.50;;
80213;SDS011;69531;37.974;23.708;2023-04-28T11:59:30;6.85;;;2.28;;
80213;SDS011;69531;37.974;23.708;2023-04-28T12:02:03;8.25;;;2.45;;
80213;SDS011;69531;37.974;23.708;2023-04-28T12:07:14;6.68;;;2.30;;
80213;SDS011;69531;37.974;23.708;2023-04-28T12:09:42;8.02;;;2.42;;
80213;SDS011;69531;37.974;23.708;2023-04-28T12:17:25;5.78;;;2.42;;
80213;SDS011;69531;37.974;23.708;2023-04-28T12:19:55;3.88;;;1.92;;
80213;SDS011;69531;37.974;23.708;2023-04-28T12:22:22;6.90;;;2.22;;
80213;SDS011;69531;37.974;23.708;2023-04-28T12:25:02;4.10;;;2.15;;
80213;SDS011;69531;37.974;23.708;2023-04-28T12:27:28;5.93;;;2.38;;
80213;SDS011;69531;37.974;23.708;2023-04-28T12:29:55;7.45;;;2.55;;
80213;SDS011;69531;37.974;23.708;2023-04-28T12:32:37;7.05;;;2.53;;
80213;SDS011;69531;37.974;23.708;2023-04-28T12:35:12;8.50;;;2.50;;
80213;SDS011;69531;37.974;23.708;2023-04-28T12:37:38;4.97;;;2.10;;
80213;SDS011;69531;37.974;23.708;2023-04-28T12:40:05;5.18;;;2.28;;
80213;SDS011;69531;37.974;23.708;2023-04-28T12:42:31;4.47;;;2.20;;
80213;SDS011;69531;37.974;23.708;2023-04-28T12:44:58;6.05;;;2.33;;
80213;SDS011;69531;37.974;23.708;2023-04-28T12:47:23;7.57;;;1.92;;
80213;SDS011;69531;37.974;23.708;2023-04-28T12:49:49;6.20;;;2.17;;
80213;SDS011;69531;37.974;23.708;2023-04-28T12:52:17;4.10;;;2.25;;
80213;SDS011;69531;37.974;23.708;2023-04-28T12:54:43;5.85;;;2.10;;
80213;SDS011;69531;37.974;23.708;2023-04-28T12:57:13;4.63;;;2.00;;
80213;SDS011;69531;37.974;23.708;2023-04-28T12:59:39;4.18;;;1.75;;
80213;SDS011;69531;37.974;23.708;2023-04-28T13:02:05;5.22;;;2.00;;
80213;SDS011;69531;37.974;23.708;2023-04-28T13:04:31;4.90;;;2.17;;
80213;SDS011;69531;37.974;23.708;2023-04-28T13:06:57;5.65;;;2.25;;
80213;SDS011;69531;37.974;23.708;2023-04-28T13:09:23;4.53;;;2.30;;
80213;SDS011;69531;37.974;23.708;2023-04-28T13:11:50;5.28;;;2.28;;
80213;SDS011;69531;37.974;23.708;2023-04-28T13:14:17;16.10;;;2.95;;
80213;SDS011;69531;37.974;23.708;2023-04-28T13:16:44;8.40;;;2.60;;
80213;SDS011;69531;37.974;23.708;2023-04-28T13:19:09;6.45;;;2.80;;
80213;SDS011;69531;37.974;23.708;2023-04-28T13:21:38;6.75;;;2.88;;
80213;SDS011;69531;37.974;23.708;2023-04-28T13:24:07;5.22;;;2.70;;
80213;SDS011;69531;37.974;23.708;2023-04-28T13:26:33;4.60;;;2.70;;
80213;SDS011;69531;37.974;23.708;2023-04-28T13:28:59;7.70;;;3.90;;
80213;SDS011;69531;37.974;23.708;2023-04-28T13:31:26;5.75;;;3.38;;
80213;SDS011;69531;37.974;23.708;2023-04-28T13:33:54;5.40;;;3.00;;
80213;SDS011;69531;37.974;23.708;2023-04-28T13:36:20;5.65;;;3.13;;
80213;SDS011;69531;37.974;23.708;2023-04-28T13:38:45;7.93;;;3.15;;
80213;SDS011;69531;37.974;23.708;2023-04-28T13:41:13;7.45;;;3.50;;
80213;SDS011;69531;37.974;23.708;2023-04-28T13:43:40;6.05;;;3.05;;
80213;SDS011;69531;37.974;23.708;2023-04-28T13:46:06;5.95;;;3.10;;
80213;SDS011;69531;37.974;23.708;2023-04-28T13:48:36;5.43;;;3.15;;
80213;SDS011;69531;37.974;23.708;2023-04-28T13:51:03;6.78;;;3.47;;
80213;SDS011;69531;37.974;23.708;2023-04-28T13:53:29;5.13;;;3.05;;
80213;SDS011;69531;37.974;23.708;2023-04-28T13:55:55;5.88;;;3.28;;
80213;SDS011;69531;37.974;23.708;2023-04-28T13:58:27;5.15;;;2.63;;
80213;SDS011;69531;37.974;23.708;2023-04-28T14:00:54;8.10;;;3.22;;
80213;SDS011;69531;37.974;23.708;2023-04-28T14:03:21;5.80;;;2.80;;
80213;SDS011;69531;37.974;23.708;2023-04-28T14:05:53;6.75;;;2.78;;
80213;SDS011;69531;37.974;23.708;2023-04-28T14:08:19;5.60;;;2.50;;
80213;SDS011;69531;37.974;23.708;2023-04-28T14:10:46;3.95;;;2.30;;
80213;SDS011;69531;37.974;23.708;2023-04-28T14:13:13;5.07;;;2.58;;
80213;SDS011;69531;37.974;23.708;2023-04-28T14:15:39;3.78;;;2.33;;
80213;SDS011;69531;37.974;23.708;2023-04-28T14:18:06;3.33;;;2.10;;
80213;SDS011;69531;37.974;23.708;2023-04-28T14:20:33;8.23;;;2.60;;
80213;SDS011;69531;37.974;23.708;2023-04-28T14:22:59;3.67;;;2.05;;
80213;SDS011;69531;37.974;23.708;2023-04-28T14:25:25;3.33;;;1.90;;
80213;SDS011;69531;37.974;23.708;2023-04-28T14:27:50;3.95;;;1.80;;
80213;SDS011;69531;37.974;23.708;2023-04-28T14:30:18;4.95;;;1.75;;
80213;SDS011;69531;37.974;23.708;2023-04-28T14:32:44;3.72;;;1.90;;
80213;SDS011;69531;37.974;23.708;2023-04-28T14:35:10;4.72;;;1.80;;
80213;SDS011;69531;37.974;23.708;2023-04-28T14:37:36;3.53;;;1.77;;
80213;SDS011;69531;37.974;23.708;2023-04-28T14:40:03;4.13;;;1.70;;
80213;SDS011;69531;37.974;23.708;2023-04-28T14:42:30;4.90;;;1.80;;
80213;SDS011;69531;37.974;23.708;2023-04-28T14:44:57;3.97;;;1.60;;
80213;SDS011;69531;37.974;23.708;2023-04-28T14:47:23;2.15;;;1.38;;
80213;SDS011;69531;37.974;23.708;2023-04-28T14:49:51;5.30;;;1.70;;
80213;SDS011;69531;37.974;23.708;2023-04-28T14:52:21;2.28;;;1.40;;
80213;SDS011;69531;37.974;23.708;2023-04-28T14:54:47;4.30;;;1.60;;
80213;SDS011;69531;37.974;23.708;2023-04-28T14:57:13;2.40;;;1.55;;
80213;SDS011;69531;37.974;23.708;2023-04-28T14:59:39;3.40;;;1.60;;
80213;SDS011;69531;37.974;23.708;2023-04-28T15:02:05;4.10;;;1.80;;
80213;SDS011;69531;37.974;23.708;2023-04-28T15:04:32;3.72;;;1.48;;
80213;SDS011;69531;37.974;23.708;2023-04-28T15:06:58;3.83;;;1.65;;
80213;SDS011;69531;37.974;23.708;2023-04-28T15:09:25;3.60;;;1.42;;
80213;SDS011;69531;37.974;23.708;2023-04-28T15:11:51;3.88;;;1.42;;
80213;SDS011;69531;37.974;23.708;2023-04-28T15:14:17;2.75;;;1.05;;
80213;SDS011;69531;37.974;23.708;2023-04-28T15:16:43;3.58;;;1.55;;